createdAt,value
2023-03-11T00:00:55.353Z,3.30
2023-03-11T00:03:24.903Z,3.30
2023-03-11T00:05:52.982Z,2.58
2023-03-11T00:08:22.653Z,3.15
2023-03-11T00:10:53.260Z,3.15
2023-03-11T00:13:19.621Z,2.95
2023-03-11T00:15:48.693Z,2.78
2023-03-11T00:18:15.758Z,2.83
2023-03-11T00:20:44.435Z,2.63
2023-03-11T00:23:13.216Z,2.72
2023-03-11T00:25:40.477Z,2.55
2023-03-11T00:28:07.468Z,2.65
2023-03-11T00:30:34.109Z,3.10
2023-03-11T00:33:00.724Z,2.90
2023-03-11T00:35:30.708Z,3.42
2023-03-11T00:37:59.716Z,3.13
2023-03-11T00:40:28.902Z,3.47
2023-03-11T00:42:55.445Z,4.05
2023-03-11T00:45:22.484Z,3.88
2023-03-11T00:47:48.938Z,4.03
2023-03-11T00:50:23.470Z,3.92
2023-03-11T00:52:51.422Z,3.30
2023-03-11T00:55:24.615Z,3.58
2023-03-11T00:57:55.367Z,3.53
2023-03-11T01:00:23.754Z,3.50
2023-03-11T01:02:51.545Z,3.47
2023-03-11T01:05:23.362Z,3.15
2023-03-11T01:07:49.960Z,3.28
2023-03-11T01:10:17.682Z,2.90
2023-03-11T01:12:44.205Z,3.50
2023-03-11T01:15:18.787Z,2.85
2023-03-11T01:17:45.400Z,3.08
2023-03-11T01:20:12.920Z,3.47
2023-03-11T01:22:39.365Z,2.90
2023-03-11T01:25:06.187Z,2.72
2023-03-11T01:27:32.582Z,2.58
2023-03-11T01:29:58.960Z,2.13
2023-03-11T01:32:25.510Z,2.80
2023-03-11T01:34:51.939Z,2.88
2023-03-11T01:37:20.110Z,2.65
2023-03-11T01:39:46.531Z,2.83
2023-03-11T01:42:13.066Z,2.45
2023-03-11T01:44:39.426Z,2.80
2023-03-11T01:47:05.732Z,2.80
2023-03-11T01:49:32.163Z,3.00
2023-03-11T01:52:03.741Z,2.80
2023-03-11T01:54:33.468Z,2.67
2023-03-11T01:57:05.095Z,2.75
2023-03-11T01:59:39.436Z,2.75
2023-03-11T02:02:17.446Z,2.80
2023-03-11T02:04:44.879Z,2.83
2023-03-11T02:07:11.717Z,2.63
2023-03-11T02:09:38.508Z,2.70
2023-03-11T02:12:06.361Z,2.70
2023-03-11T02:14:33.288Z,2.33
2023-03-11T02:17:00.562Z,2.20
2023-03-11T02:19:54.020Z,2.50
2023-03-11T02:22:20.941Z,2.53
2023-03-11T02:25:04.718Z,2.58
2023-03-11T02:27:36.378Z,2.20
2023-03-11T02:30:04.410Z,2.33
2023-03-11T02:32:31.306Z,2.40
2023-03-11T02:34:57.740Z,2.25
2023-03-11T02:37:24.159Z,2.13
2023-03-11T02:39:52.942Z,2.20
2023-03-11T02:42:28.803Z,2.58
2023-03-11T02:45:09.163Z,2.00
2023-03-11T02:47:37.678Z,2.13
2023-03-11T02:50:05.699Z,2.17
2023-03-11T02:52:34.703Z,1.80
2023-03-11T02:55:01.768Z,2.22
2023-03-11T02:57:28.367Z,2.00
2023-03-11T02:59:54.812Z,2.00
2023-03-11T03:02:21.235Z,2.05
2023-03-11T03:04:47.584Z,2.03
2023-03-11T03:07:14.061Z,1.83
2023-03-11T03:09:40.552Z,2.17
2023-03-11T03:12:07.377Z,1.85
2023-03-11T03:14:33.829Z,2.00
2023-03-11T03:17:00.357Z,1.95
2023-03-11T03:19:26.785Z,1.88
2023-03-11T03:21:53.236Z,1.85
2023-03-11T03:24:19.565Z,1.85
2023-03-11T03:26:46.098Z,1.95
2023-03-11T03:29:12.625Z,2.08
2023-03-11T03:31:39.116Z,1.65
2023-03-11T03:34:05.591Z,1.95
2023-03-11T03:36:32.035Z,2.15
2023-03-11T03:38:59.501Z,2.15
2023-03-11T03:41:25.836Z,1.55
2023-03-11T03:43:53.477Z,1.55
2023-03-11T03:46:20.779Z,1.92
2023-03-11T03:48:47.234Z,1.77
2023-03-11T03:51:14.383Z,2.20
2023-03-11T03:53:42.294Z,1.67
2023-03-11T03:56:11.162Z,1.90
2023-03-11T03:58:37.789Z,2.28
2023-03-11T04:01:05.441Z,1.90
2023-03-11T04:03:32.054Z,2.00
2023-03-11T04:06:19.868Z,1.85
2023-03-11T04:08:46.314Z,1.70
2023-03-11T04:11:13.676Z,1.90
2023-03-11T04:13:40.448Z,2.30
2023-03-11T04:16:07.880Z,1.77
2023-03-11T04:18:34.607Z,1.63
2023-03-11T04:21:05.467Z,1.65
2023-03-11T04:23:31.936Z,1.58
2023-03-11T04:25:58.353Z,2.40
2023-03-11T04:28:24.728Z,2.13
2023-03-11T04:30:51.080Z,1.70
2023-03-11T04:33:17.427Z,1.70
2023-03-11T04:35:43.795Z,2.00
2023-03-11T04:38:10.211Z,1.80
2023-03-11T04:40:39.928Z,1.38
2023-03-11T04:43:06.258Z,1.98
2023-03-11T04:45:33.121Z,1.63
2023-03-11T04:47:59.437Z,1.70
2023-03-11T04:50:25.755Z,1.80
2023-03-11T04:52:52.092Z,1.70
2023-03-11T04:55:18.413Z,1.70
2023-03-11T04:57:44.737Z,1.80
2023-03-11T05:00:12.640Z,2.15
2023-03-11T05:02:39.874Z,1.73
2023-03-11T05:05:08.205Z,2.17
2023-03-11T05:07:34.755Z,1.95
2023-03-11T05:10:01.078Z,2.38
2023-03-11T05:12:27.498Z,2.28
2023-03-11T05:14:53.829Z,2.00
2023-03-11T05:17:20.231Z,1.60
2023-03-11T05:19:46.766Z,2.38
2023-03-11T05:22:13.101Z,1.77
2023-03-11T05:24:39.606Z,2.05
2023-03-11T05:27:06.016Z,1.85
2023-03-11T05:29:32.517Z,2.20
2023-03-11T05:31:58.986Z,2.17
2023-03-11T05:34:25.569Z,2.30
2023-03-11T05:36:51.896Z,2.20
2023-03-11T05:39:18.247Z,2.38
2023-03-11T05:41:44.680Z,1.70
2023-03-11T05:44:11.091Z,1.70
2023-03-11T05:46:37.632Z,1.90
2023-03-11T05:49:04.093Z,2.10
2023-03-11T05:51:30.461Z,2.30
2023-03-11T05:53:56.907Z,2.08
2023-03-11T05:56:23.388Z,2.20
2023-03-11T05:58:50.396Z,2.17
2023-03-11T06:01:19.369Z,2.28
2023-03-11T06:03:45.808Z,2.17
2023-03-11T06:06:13.264Z,2.50
2023-03-11T06:08:39.624Z,2.10
2023-03-11T06:11:10.884Z,2.30
2023-03-11T06:13:37.771Z,2.15
2023-03-11T06:16:04.899Z,2.30
2023-03-11T06:18:31.392Z,2.63
2023-03-11T06:20:59.544Z,2.60
2023-03-11T06:23:26.337Z,2.30
2023-03-11T06:25:56.358Z,2.33
2023-03-11T06:28:22.709Z,1.77
2023-03-11T06:30:49.152Z,2.50
2023-03-11T06:33:15.552Z,2.38
2023-03-11T06:35:42.085Z,2.40
2023-03-11T06:38:08.797Z,3.60
2023-03-11T06:40:37.904Z,5.90
2023-03-11T06:43:04.285Z,7.00
2023-03-11T06:45:30.685Z,6.47
2023-03-11T06:47:57.065Z,5.65
2023-03-11T06:50:24.008Z,4.85
2023-03-11T06:52:50.380Z,4.78
2023-03-11T06:55:16.750Z,3.33
2023-03-11T06:57:45.557Z,3.17
2023-03-11T07:00:12.988Z,3.22
2023-03-11T07:02:39.338Z,3.20
2023-03-11T07:05:06.185Z,3.45
2023-03-11T07:07:32.705Z,2.70
2023-03-11T07:09:59.061Z,3.78
2023-03-11T07:12:25.429Z,3.67
2023-03-11T07:14:59.195Z,3.35
2023-03-11T07:17:26.528Z,3.45
2023-03-11T07:19:53.816Z,3.03
2023-03-11T07:22:20.611Z,3.20
2023-03-11T07:24:48.891Z,2.70
2023-03-11T07:27:15.573Z,2.40
2023-03-11T07:29:42.076Z,2.33
2023-03-11T07:32:09.262Z,2.88
2023-03-11T07:34:35.781Z,2.95
2023-03-11T07:37:02.224Z,2.85
2023-03-11T07:39:28.570Z,2.97
2023-03-11T07:41:54.889Z,2.47
2023-03-11T07:44:21.228Z,2.63
2023-03-11T07:46:47.948Z,2.63
2023-03-11T07:49:14.300Z,2.63
2023-03-11T07:51:42.386Z,3.40
2023-03-11T07:54:11.310Z,3.70
2023-03-11T07:56:38.231Z,2.88
2023-03-11T07:59:05.417Z,2.85
2023-03-11T08:01:36.364Z,2.15
2023-03-11T08:04:05.323Z,1.65
2023-03-11T08:06:33.529Z,2.00
2023-03-11T08:09:01.311Z,2.10
2023-03-11T08:11:28.249Z,2.25
2023-03-11T08:13:54.677Z,2.08
2023-03-11T08:16:22.182Z,2.08
2023-03-11T08:18:50.077Z,1.60
2023-03-11T08:21:19.638Z,2.28
2023-03-11T08:23:45.981Z,2.10
2023-03-11T08:26:14.896Z,2.20
2023-03-11T08:28:41.509Z,2.20
2023-03-11T08:31:14.766Z,2.15
2023-03-11T08:33:42.512Z,2.15
2023-03-11T08:36:09.497Z,1.63
2023-03-11T08:38:36.066Z,2.47
2023-03-11T08:41:02.508Z,1.60
2023-03-11T08:43:28.965Z,2.28
2023-03-11T08:45:55.477Z,1.83
2023-03-11T08:48:23.480Z,1.92
2023-03-11T08:50:54.289Z,1.98
2023-03-11T08:53:22.505Z,1.90
2023-03-11T08:55:50.201Z,2.38
2023-03-11T08:58:16.765Z,1.58
2023-03-11T09:00:43.294Z,2.17
2023-03-11T09:03:10.039Z,2.30
2023-03-11T09:05:36.822Z,2.30
2023-03-11T09:08:05.437Z,1.90
2023-03-11T09:10:32.535Z,1.70
2023-03-11T09:12:58.880Z,2.10
2023-03-11T09:15:25.464Z,2.28
2023-03-11T09:17:52.892Z,2.03
2023-03-11T09:20:19.421Z,2.00
2023-03-11T09:22:45.927Z,2.15
2023-03-11T09:25:13.056Z,2.00
2023-03-11T09:27:39.465Z,2.00
2023-03-11T09:30:06.448Z,1.58
2023-03-11T09:32:32.820Z,2.10
2023-03-11T09:35:00.158Z,1.70
2023-03-11T09:37:27.110Z,1.67
2023-03-11T09:39:53.424Z,1.60
2023-03-11T09:42:29.371Z,1.88
2023-03-11T09:45:19.253Z,1.88
2023-03-11T09:48:26.952Z,2.20
2023-03-11T09:51:00.750Z,1.77
2023-03-11T09:53:40.533Z,2.10
2023-03-11T09:56:14.931Z,1.73
2023-03-11T09:58:48.102Z,1.70
2023-03-11T10:01:27.714Z,2.08
2023-03-11T10:04:23.866Z,1.75
2023-03-11T10:06:50.390Z,1.98
2023-03-11T10:09:34.840Z,1.83
2023-03-11T10:12:17.709Z,1.63
2023-03-11T10:15:02.867Z,1.80
2023-03-11T10:18:18.435Z,1.95
2023-03-11T10:21:15.283Z,1.95
2023-03-11T10:24:24.888Z,1.67
2023-03-11T10:27:07.058Z,1.58
2023-03-11T10:29:48.194Z,1.50
2023-03-11T10:32:24.311Z,1.40
2023-03-11T10:34:59.065Z,2.03
2023-03-11T10:37:48.406Z,1.42
2023-03-11T10:40:25.902Z,1.77
2023-03-11T10:42:55.110Z,1.75
2023-03-11T10:45:23.371Z,1.92
2023-03-11T10:47:50.042Z,1.80
2023-03-11T10:50:18.438Z,1.77
2023-03-11T10:53:09.187Z,1.67
2023-03-11T10:55:44.471Z,2.10
2023-03-11T10:58:18.058Z,1.92
2023-03-11T11:00:44.953Z,1.75
2023-03-11T11:03:21.731Z,2.22
2023-03-11T11:05:58.951Z,2.00
2023-03-11T11:08:25.488Z,2.22
2023-03-11T11:10:55.020Z,2.10
2023-03-11T11:13:24.098Z,2.17
2023-03-11T11:16:20.836Z,1.75
2023-03-11T11:18:51.441Z,1.60
2023-03-11T11:21:31.020Z,2.53
2023-03-11T11:24:16.522Z,2.75
2023-03-11T11:26:43.313Z,2.65
2023-03-11T11:29:09.665Z,1.70
2023-03-11T11:31:38.067Z,2.30
2023-03-11T11:34:07.038Z,2.30
2023-03-11T11:36:36.617Z,1.77
2023-03-11T11:39:11.436Z,2.30
2023-03-11T11:41:38.112Z,2.37
2023-03-11T11:44:06.758Z,1.98
2023-03-11T11:46:53.302Z,1.58
2023-03-11T11:49:24.099Z,2.10
2023-03-11T11:51:57.834Z,1.70
2023-03-11T11:54:34.245Z,1.85
2023-03-11T11:57:09.191Z,1.70
2023-03-11T11:59:35.732Z,2.10
2023-03-11T12:02:56.465Z,2.15
2023-03-11T12:05:35.532Z,1.50
2023-03-11T12:08:20.038Z,2.05
2023-03-11T12:11:06.221Z,2.22
2023-03-11T12:17:08.331Z,1.70
2023-03-11T12:19:57.228Z,1.70
2023-03-11T12:22:45.345Z,1.45
2023-03-11T12:25:39.409Z,1.77
2023-03-11T12:28:27.142Z,1.70
2023-03-11T12:31:00.485Z,2.22
2023-03-11T12:33:31.371Z,1.80
2023-03-11T12:35:59.354Z,1.77
2023-03-11T12:38:38.640Z,1.75
2023-03-11T12:41:14.067Z,1.85
2023-03-11T12:43:40.332Z,1.95
2023-03-11T12:46:08.975Z,1.88
2023-03-11T12:48:43.471Z,2.10
2023-03-11T12:51:34.126Z,1.65
2023-03-11T12:54:20.372Z,1.48
2023-03-11T12:59:48.297Z,1.60
2023-03-11T13:02:48.331Z,1.67
2023-03-11T13:05:39.386Z,2.00
2023-03-11T13:08:23.690Z,2.10
2023-03-11T13:10:52.504Z,2.25
2023-03-11T13:13:40.453Z,2.05
2023-03-11T13:16:12.864Z,2.10
2023-03-11T13:18:42.103Z,2.38
2023-03-11T13:21:27.143Z,2.28
2023-03-11T13:24:19.444Z,2.20
2023-03-11T13:26:56.813Z,2.03
2023-03-11T13:29:41.463Z,2.33
2023-03-11T13:32:45.578Z,1.63
2023-03-11T13:35:40.876Z,1.50
2023-03-11T13:38:23.438Z,1.38
2023-03-11T13:40:52.443Z,1.58
2023-03-11T13:43:21.319Z,1.33
2023-03-11T13:45:53.631Z,1.30
2023-03-11T13:48:29.527Z,1.20
2023-03-11T13:53:31.960Z,0.95
2023-03-11T13:55:58.314Z,1.35
2023-03-11T13:58:27.686Z,1.23
2023-03-11T14:00:59.990Z,1.38
2023-03-11T14:03:30.114Z,1.35
2023-03-11T14:06:01.270Z,1.83
2023-03-11T14:08:35.804Z,1.65
2023-03-11T14:11:14.667Z,1.70
2023-03-11T14:13:46.852Z,1.50
2023-03-11T14:16:33.583Z,1.30
2023-03-11T14:19:08.541Z,1.42
2023-03-11T14:21:35.465Z,1.30
2023-03-11T14:24:02.910Z,1.30
2023-03-11T14:26:35.004Z,1.40
2023-03-11T14:29:08.805Z,1.20
2023-03-11T14:31:37.503Z,1.60
2023-03-11T14:34:06.696Z,1.30
2023-03-11T14:36:49.532Z,1.38
2023-03-11T14:39:32.071Z,1.60
2023-03-11T14:42:19.189Z,1.83
2023-03-11T14:45:02.538Z,1.70
2023-03-11T14:47:41.708Z,1.50
2023-03-11T14:50:25.778Z,1.42
2023-03-11T14:52:55.436Z,1.40
2023-03-11T14:55:50.966Z,1.27
2023-03-11T14:58:40.758Z,1.30
2023-03-11T15:01:31.701Z,1.33
2023-03-11T15:04:01.565Z,1.27
2023-03-11T15:06:29.579Z,1.45
2023-03-11T15:09:01.206Z,1.48
2023-03-11T15:11:28.567Z,1.40
2023-03-11T15:14:16.789Z,1.63
2023-03-11T15:16:43.279Z,1.45
2023-03-11T15:19:23.061Z,1.33
2023-03-11T15:21:54.512Z,1.38
2023-03-11T15:24:29.833Z,1.52
2023-03-11T15:27:01.374Z,1.20
2023-03-11T15:29:29.528Z,1.40
2023-03-11T15:31:57.147Z,1.20
2023-03-11T15:34:28.042Z,1.40
2023-03-11T15:37:19.587Z,1.52
2023-03-11T15:39:48.111Z,1.50
2023-03-11T15:42:21.913Z,1.10
2023-03-11T15:44:48.214Z,1.15
2023-03-11T15:47:20.368Z,1.25
2023-03-11T15:49:47.426Z,1.20
2023-03-11T15:52:14.529Z,1.27
2023-03-11T15:54:41.173Z,1.25
2023-03-11T15:57:12.406Z,1.40
2023-03-11T15:59:41.089Z,1.52
2023-03-11T16:02:26.213Z,1.40
2023-03-11T16:04:53.327Z,1.58
2023-03-11T16:07:32.826Z,1.52
2023-03-11T16:10:05.628Z,1.33
2023-03-11T16:12:32.127Z,1.27
2023-03-11T16:14:58.608Z,1.10
2023-03-11T16:17:25.031Z,1.25
2023-03-11T16:19:51.459Z,1.20
2023-03-11T16:22:28.192Z,1.40
2023-03-11T16:24:54.716Z,2.88
2023-03-11T16:27:21.048Z,5.75
2023-03-11T16:29:47.843Z,6.25
2023-03-11T16:32:14.753Z,7.03
2023-03-11T16:34:41.072Z,5.53
2023-03-11T16:37:07.956Z,4.13
2023-03-11T16:39:34.765Z,4.43
2023-03-11T16:42:01.374Z,3.42
2023-03-11T16:44:27.781Z,3.13
2023-03-11T16:46:54.185Z,2.55
2023-03-11T16:49:20.594Z,1.88
2023-03-11T16:51:46.922Z,1.52
2023-03-11T16:54:13.378Z,1.65
2023-03-11T16:56:41.727Z,1.50
2023-03-11T16:59:08.259Z,1.40
2023-03-11T17:01:38.453Z,1.40
2023-03-11T17:04:06.988Z,1.48
2023-03-11T17:06:33.666Z,1.35
2023-03-11T17:09:00.378Z,1.90
2023-03-11T17:11:29.392Z,1.52
2023-03-11T17:14:03.257Z,1.45
2023-03-11T17:16:40.277Z,1.83
2023-03-11T17:19:06.731Z,1.50
2023-03-11T17:21:33.073Z,1.60
2023-03-11T17:23:59.411Z,1.35
2023-03-11T17:26:27.514Z,1.60
2023-03-11T17:28:54.172Z,1.65
2023-03-11T17:31:20.596Z,1.20
2023-03-11T17:33:47.077Z,1.67
2023-03-11T17:36:18.779Z,1.85
2023-03-11T17:38:46.885Z,1.10
2023-03-11T17:41:16.004Z,1.60
2023-03-11T17:43:43.217Z,2.00
2023-03-11T17:46:14.189Z,1.85
2023-03-11T17:48:41.480Z,2.20
2023-03-11T17:51:13.028Z,2.10
2023-03-11T17:53:40.570Z,1.98
2023-03-11T17:56:08.344Z,2.05
2023-03-11T17:58:35.619Z,2.25
2023-03-11T18:01:07.609Z,2.47
2023-03-11T18:03:34.695Z,2.92
2023-03-11T18:06:04.369Z,3.30
2023-03-11T18:08:32.793Z,3.13
2023-03-11T18:11:08.538Z,3.53
2023-03-11T18:13:35.833Z,4.07
2023-03-11T18:16:04.749Z,4.32
2023-03-11T18:18:31.993Z,5.03
2023-03-11T18:21:10.606Z,5.32
2023-03-11T18:23:38.092Z,5.70
2023-03-11T18:26:07.498Z,6.22
2023-03-11T18:28:35.213Z,6.13
2023-03-11T18:31:15.052Z,6.25
2023-03-11T18:33:43.127Z,5.47
2023-03-11T18:36:13.548Z,6.30
2023-03-11T18:38:39.920Z,6.38
2023-03-11T18:41:06.557Z,6.10
2023-03-11T18:43:32.914Z,7.18
2023-03-11T18:46:01.259Z,7.85
2023-03-11T18:48:27.690Z,8.40
2023-03-11T18:50:55.379Z,7.93
2023-03-11T18:53:24.748Z,8.18
2023-03-11T18:56:13.023Z,7.72
2023-03-11T18:58:39.633Z,8.00
2023-03-11T19:01:08.504Z,7.90
2023-03-11T19:03:35.231Z,8.38
2023-03-11T19:06:01.972Z,9.43
2023-03-11T19:08:28.701Z,9.80
2023-03-11T19:10:55.441Z,9.23
2023-03-11T19:13:22.338Z,9.85
2023-03-11T19:15:48.861Z,9.98
2023-03-11T19:18:15.618Z,10.57
2023-03-11T19:20:42.246Z,10.23
2023-03-11T19:23:09.154Z,10.60
2023-03-11T19:25:35.883Z,10.60
2023-03-11T19:28:02.315Z,9.95
2023-03-11T19:30:28.722Z,9.75
2023-03-11T19:32:55.383Z,10.48
2023-03-11T19:35:23.674Z,10.75
2023-03-11T19:37:50.436Z,10.63
2023-03-11T19:40:17.810Z,11.70
2023-03-11T19:42:44.324Z,12.30
2023-03-11T19:45:11.387Z,12.45
2023-03-11T19:47:38.540Z,13.32
2023-03-11T19:50:05.781Z,12.52
2023-03-11T19:52:34.637Z,13.75
2023-03-11T19:55:01.120Z,12.77
2023-03-11T19:57:27.525Z,11.73
2023-03-11T19:59:55.468Z,12.40
2023-03-11T20:02:21.995Z,15.35
2023-03-11T20:04:48.674Z,12.68
2023-03-11T20:07:15.318Z,11.88
2023-03-11T20:09:41.685Z,12.10
2023-03-11T20:12:08.218Z,12.38
2023-03-11T20:14:34.640Z,13.10
2023-03-11T20:17:01.046Z,12.02
2023-03-11T20:19:27.597Z,11.73
2023-03-11T20:21:54.117Z,11.60
2023-03-11T20:24:20.504Z,12.18
2023-03-11T20:26:48.817Z,10.60
2023-03-11T20:29:17.049Z,11.18
2023-03-11T20:31:44.400Z,11.10
2023-03-11T20:34:12.200Z,10.65
2023-03-11T20:36:39.879Z,11.07
2023-03-11T20:39:09.900Z,11.80
2023-03-11T20:41:38.951Z,12.35
2023-03-11T20:44:07.210Z,11.70
2023-03-11T20:46:33.995Z,13.15
2023-03-11T20:49:01.517Z,14.35
2023-03-11T20:51:28.195Z,13.05
2023-03-11T20:53:54.617Z,13.13
2023-03-11T20:56:24.374Z,13.73
2023-03-11T20:58:52.124Z,13.35
2023-03-11T21:01:31.525Z,11.45
2023-03-11T21:04:01.227Z,12.50
2023-03-11T21:06:31.210Z,11.60
2023-03-11T21:08:59.746Z,12.18
2023-03-11T21:11:26.965Z,10.05
2023-03-11T21:13:54.929Z,10.93
2023-03-11T21:16:22.210Z,10.43
2023-03-11T21:18:49.616Z,10.15
2023-03-11T21:21:17.694Z,9.13
2023-03-11T21:23:44.718Z,9.38
2023-03-11T21:26:13.626Z,11.15
2023-03-11T21:28:40.212Z,10.95
2023-03-11T21:31:12.106Z,10.77
2023-03-11T21:33:40.571Z,10.70
2023-03-11T21:36:08.697Z,9.27
2023-03-11T21:38:35.446Z,8.20
2023-03-11T21:41:11.311Z,9.38
2023-03-11T21:43:38.704Z,9.88
2023-03-11T21:46:06.509Z,9.10
2023-03-11T21:48:33.678Z,8.45
2023-03-11T21:51:00.565Z,10.13
2023-03-11T21:53:27.300Z,9.73
2023-03-11T21:55:54.001Z,9.65
2023-03-11T21:58:20.751Z,10.35
2023-03-11T22:00:50.686Z,11.20
2023-03-11T22:03:20.769Z,10.90
2023-03-11T22:05:47.857Z,11.70
2023-03-11T22:08:17.659Z,11.68
2023-03-11T22:10:44.513Z,12.35
2023-03-11T22:13:10.924Z,12.60
2023-03-11T22:15:37.889Z,12.13
2023-03-11T22:18:04.650Z,12.52
2023-03-11T22:20:31.216Z,12.75
2023-03-11T22:22:57.662Z,14.10
2023-03-11T22:25:24.073Z,13.30
2023-03-11T22:27:50.427Z,13.10
2023-03-11T22:30:17.062Z,12.15
2023-03-11T22:32:43.581Z,13.00
2023-03-11T22:35:10.081Z,13.60
2023-03-11T22:37:36.485Z,12.55
2023-03-11T22:40:04.586Z,11.88
2023-03-11T22:42:30.924Z,12.55
2023-03-11T22:44:57.309Z,12.23
2023-03-11T22:47:23.648Z,12.57
2023-03-11T22:49:50.002Z,11.27
2023-03-11T22:52:16.971Z,11.48
2023-03-11T22:54:43.777Z,11.32
2023-03-11T22:57:10.216Z,12.32
2023-03-11T22:59:36.747Z,11.25
2023-03-11T23:02:03.165Z,11.70
2023-03-11T23:04:29.592Z,10.43
2023-03-11T23:06:56.063Z,12.32
2023-03-11T23:09:23.405Z,12.63
2023-03-11T23:11:50.858Z,12.80
2023-03-11T23:14:18.101Z,11.80
2023-03-11T23:16:45.219Z,13.45
2023-03-11T23:19:12.497Z,13.75
2023-03-11T23:21:39.305Z,12.50
2023-03-11T23:24:08.654Z,10.27
2023-03-11T23:26:35.925Z,9.85
2023-03-11T23:29:03.955Z,8.85
2023-03-11T23:31:30.944Z,8.38
2023-03-11T23:33:57.661Z,8.32
2023-03-11T23:36:27.496Z,7.93
2023-03-11T23:38:53.904Z,8.48
2023-03-11T23:41:23.545Z,7.38
2023-03-11T23:43:50.792Z,7.45
2023-03-11T23:46:17.232Z,6.75
2023-03-11T23:48:43.585Z,7.30
2023-03-11T23:51:10.072Z,6.75
2023-03-11T23:53:38.111Z,7.10
2023-03-11T23:56:13.708Z,6.38
